Time;durP1;ratioP1;P1;durP2;ratioP2;P2;SDS_P1;SDS_P2;PMS_P1;PMS_P2;Temp;Humidity;BMP_temperature;BMP_pressure;BME280_temperature;BME280_humidity;BME280_pressure;Samples;Min_cycle;Max_cycle;Signal;HPM_P1;HPM_P2
2022/05/31 01:11:27;;;;;;;2.33;1.40;;;16.10;61.10;;;;;;5036853;22;20452;-63
2022/05/31 01:13:53;;;;;;;1.88;1.50;;;16.00;61.00;;;;;;5072365;28;20028;-63
2022/05/31 01:16:19;;;;;;;2.63;1.52;;;16.10;61.10;;;;;;5087997;28;20026;-63
2022/05/31 01:18:45;;;;;;;2.15;1.30;;;16.10;61.10;;;;;;5079059;28;20038;-62
2022/05/31 01:21:10;;;;;;;2.05;1.45;;;16.00;61.10;;;;;;5072949;28;20020;-62
2022/05/31 01:23:59;;;;;;;2.05;1.42;;;16.10;61.20;;;;;;5072017;28;20020;-62
2022/05/31 01:26:36;;;;;;;4.78;1.30;;;16.00;61.20;;;;;;5082293;28;20465;-62
2022/05/31 01:29:17;;;;;;;4.07;1.50;;;16.10;61.30;;;;;;5091926;28;20021;-63
2022/05/31 01:31:55;;;;;;;5.85;1.40;;;16.00;61.30;;;;;;5092425;28;20055;-62
2022/05/31 01:34:42;;;;;;;2.58;1.40;;;16.00;61.30;;;;;;5092506;28;20095;-62
2022/05/31 01:37:08;;;;;;;4.00;1.27;;;16.10;61.50;;;;;;5092440;28;20023;-63
2022/05/31 01:39:33;;;;;;;1.98;1.40;;;16.00;61.30;;;;;;5091058;28;20032;-63
2022/05/31 01:42:02;;;;;;;2.20;1.38;;;16.10;61.40;;;;;;5091157;28;20032;-62
2022/05/31 01:44:32;;;;;;;2.30;1.40;;;16.00;61.40;;;;;;5074176;28;20020;-63
2022/05/31 01:47:00;;;;;;;3.10;1.70;;;16.10;61.50;;;;;;5073686;28;20039;-62
2022/05/31 01:49:32;;;;;;;3.17;1.63;;;16.00;61.90;;;;;;5091598;28;20477;-63
2022/05/31 01:51:58;;;;;;;6.22;2.20;;;16.00;61.60;;;;;;5092078;28;20024;-62
2022/05/31 01:54:25;;;;;;;3.13;1.75;;;16.00;61.50;;;;;;5092083;28;20028;-62
2022/05/31 01:56:55;;;;;;;3.10;1.70;;;16.00;61.60;;;;;;5090557;28;20024;-63
2022/05/31 01:59:21;;;;;;;;;;;16.00;61.50;;;;;;5091828;28;20036;-62
2022/05/31 02:01:47;;;;;;;2.22;1.75;;;16.00;61.80;;;;;;5091190;28;20353;-62
2022/05/31 02:04:17;;;;;;;2.08;1.55;;;16.00;61.60;;;;;;5073611;28;20115;-63
2022/05/31 02:06:43;;;;;;;3.00;1.70;;;16.00;61.60;;;;;;5072733;28;20043;-63
2022/05/31 02:09:12;;;;;;;3.65;1.65;;;16.00;61.60;;;;;;5070048;28;20033;-62
2022/05/31 02:11:38;;;;;;;5.07;1.58;;;16.00;61.70;;;;;;5068827;28;20032;-63
2022/05/31 02:14:05;;;;;;;3.58;1.73;;;16.00;61.70;;;;;;5071802;28;20082;-62
2022/05/31 02:16:31;;;;;;;2.22;1.48;;;16.00;61.70;;;;;;5070696;28;20032;-62
2022/05/31 02:19:18;;;;;;;2.42;1.33;;;16.00;61.70;;;;;;5069779;28;20029;-62
2022/05/31 02:21:44;;;;;;;4.15;1.75;;;16.00;61.80;;;;;;5071795;28;20063;-62
2022/05/31 02:24:13;;;;;;;4.47;1.95;;;16.00;61.80;;;;;;5071070;28;20021;-62
2022/05/31 02:26:41;;;;;;;9.30;2.00;;;16.00;61.80;;;;;;5052876;28;20428;-62
2022/05/31 02:29:09;;;;;;;4.15;1.73;;;16.00;61.80;;;;;;5070798;28;20060;-62
2022/05/31 02:31:36;;;;;;;1.60;1.50;;;16.00;61.90;;;;;;5070794;28;20032;-62
2022/05/31 02:34:02;;;;;;;1.77;1.40;;;16.00;61.80;;;;;;5071602;28;20416;-62
2022/05/31 02:36:28;;;;;;;6.72;1.67;;;16.00;61.90;;;;;;5071275;28;20146;-63
2022/05/31 02:38:55;;;;;;;3.65;1.70;;;16.00;61.90;;;;;;5070504;28;20712;-62
2022/05/31 02:41:21;;;;;;;3.78;1.80;;;16.00;61.90;;;;;;5069545;28;20032;-62
2022/05/31 02:43:47;;;;;;;4.10;1.63;;;16.00;61.90;;;;;;5071230;28;20021;-63
2022/05/31 02:46:13;;;;;;;4.93;1.85;;;15.90;61.90;;;;;;5070454;28;20028;-62
2022/05/31 02:48:39;;;;;;;2.25;1.50;;;15.90;61.90;;;;;;5052150;28;20035;-62
2022/05/31 02:51:05;;;;;;;3.65;1.65;;;15.90;62.00;;;;;;5052580;28;20405;-62
2022/05/31 02:53:30;;;;;;;3.00;1.35;;;15.90;62.00;;;;;;5053002;28;20636;-63
2022/05/31 02:55:57;;;;;;;2.00;1.48;;;15.90;62.00;;;;;;5052167;28;20126;-63
2022/05/31 02:58:27;;;;;;;2.85;1.70;;;16.00;62.10;;;;;;5063208;28;20021;-62
2022/05/31 03:00:53;;;;;;;2.35;1.85;;;15.90;62.10;;;;;;5067871;28;20032;-63
2022/05/31 03:03:19;;;;;;;4.65;1.80;;;15.90;62.10;;;;;;5050938;28;20060;-62
2022/05/31 03:05:44;;;;;;;1.70;1.42;;;15.90;62.10;;;;;;5059855;28;20058;-62
2022/05/31 03:08:11;;;;;;;2.92;1.75;;;15.90;62.10;;;;;;5069523;28;20029;-62
2022/05/31 03:10:40;;;;;;;3.00;1.65;;;15.90;62.20;;;;;;5072672;28;20105;-62
2022/05/31 03:13:09;;;;;;;4.68;1.80;;;15.90;62.20;;;;;;5070848;28;20032;-63
2022/05/31 03:15:35;;;;;;;4.30;1.80;;;15.90;62.20;;;;;;5069805;28;20036;-62
2022/05/31 03:18:13;;;;;;;3.72;1.88;;;15.90;62.20;;;;;;5069462;28;20047;-63
2022/05/31 03:20:48;;;;;;;2.60;1.60;;;15.90;62.30;;;;;;5069999;28;20498;-62
2022/05/31 03:23:25;;;;;;;3.03;1.58;;;15.90;62.30;;;;;;5069612;28;20025;-63
2022/05/31 03:25:53;;;;;;;4.85;1.95;;;15.90;62.30;;;;;;5060260;28;20029;-62
2022/05/31 03:28:20;;;;;;;1.92;1.60;;;15.90;62.30;;;;;;5068367;28;20486;-62
2022/05/31 03:30:45;;;;;;;2.45;1.85;;;15.90;62.30;;;;;;5052170;28;20325;-63
2022/05/31 03:33:12;;;;;;;3.25;2.15;;;15.90;62.40;;;;;;5070112;28;20151;-63
2022/05/31 03:35:39;;;;;;;3.83;1.67;;;15.90;62.40;;;;;;5069729;28;20066;-62
2022/05/31 03:38:04;;;;;;;3.50;1.83;;;15.90;62.40;;;;;;5069323;28;20020;-62
2022/05/31 03:43:14;;;;;;;3.10;1.83;;;15.90;62.40;;;;;;5069410;28;20512;-62
2022/05/31 03:45:42;;;;;;;2.30;1.90;;;15.90;62.40;;;;;;5069656;28;20021;-62
2022/05/31 03:48:10;;;;;;;3.80;1.67;;;15.90;62.40;;;;;;5051374;28;20488;-62
2022/05/31 03:50:38;;;;;;;4.53;1.90;;;15.90;62.50;;;;;;5068575;28;20036;-63
2022/05/31 03:53:11;;;;;;;3.92;2.05;;;15.90;62.50;;;;;;5052067;28;20028;-62
2022/05/31 03:55:42;;;;;;;3.88;1.95;;;15.90;62.50;;;;;;5069258;28;20100;-63
2022/05/31 03:58:08;;;;;;;9.60;2.38;;;15.90;62.50;;;;;;5068448;28;20040;-62
2022/05/31 04:00:35;;;;;;;2.80;2.03;;;15.90;62.50;;;;;;5069614;28;20029;-63
2022/05/31 04:03:00;;;;;;;4.22;2.15;;;15.90;62.70;;;;;;5069261;28;20021;-63
2022/05/31 04:05:26;;;;;;;2.83;1.83;;;15.90;62.70;;;;;;5069341;28;20021;-64
2022/05/31 04:07:53;;;;;;;2.80;1.77;;;15.90;62.70;;;;;;5069481;28;20027;-62
2022/05/31 04:10:19;;;;;;;2.90;1.85;;;15.90;62.60;;;;;;5069568;28;20021;-63
2022/05/31 04:12:45;;;;;;;3.83;1.75;;;15.90;63.40;;;;;;5069822;28;20043;-63
2022/05/31 04:15:10;;;;;;;3.50;2.10;;;15.90;62.60;;;;;;5089668;28;20024;-63
2022/05/31 04:17:36;;;;;;;5.32;1.92;;;15.90;62.60;;;;;;5082685;28;20013;-63
2022/05/31 04:20:02;;;;;;;3.40;1.95;;;15.90;62.70;;;;;;5069048;28;20394;-63
2022/05/31 04:22:28;;;;;;;3.78;1.92;;;15.80;62.70;;;;;;5068920;28;20029;-63
2022/05/31 04:24:57;;;;;;;2.60;2.08;;;15.90;62.70;;;;;;5068879;28;20420;-62
2022/05/31 04:27:23;;;;;;;3.22;1.92;;;15.90;62.80;;;;;;5068082;28;20032;-62
2022/05/31 04:29:49;;;;;;;6.60;2.20;;;15.90;62.80;;;;;;5068694;28;20025;-62
2022/05/31 04:32:16;;;;;;;4.07;2.20;;;15.90;62.80;;;;;;5068833;28;20036;-63
2022/05/31 04:34:43;;;;;;;4.75;2.25;;;15.90;62.90;;;;;;5067316;28;20416;-63
2022/05/31 04:37:09;;;;;;;3.75;2.00;;;15.90;62.80;;;;;;5069493;28;20028;-63
2022/05/31 04:39:34;;;;;;;7.60;2.03;;;15.90;62.80;;;;;;5068478;28;20047;-63
2022/05/31 04:42:00;;;;;;;2.92;1.65;;;15.90;62.90;;;;;;5069528;28;20560;-63
2022/05/31 04:44:26;;;;;;;5.13;2.08;;;15.90;62.90;;;;;;5089381;28;20024;-64
2022/05/31 04:46:52;;;;;;;3.47;2.10;;;15.80;62.90;;;;;;5088706;28;20021;-62
2022/05/31 04:49:18;;;;;;;3.55;2.00;;;15.90;62.90;;;;;;5071332;28;20028;-63
2022/05/31 04:51:44;;;;;;;7.95;1.90;;;15.90;62.90;;;;;;5089254;28;20135;-63
2022/05/31 04:54:09;;;;;;;3.80;1.85;;;15.90;62.90;;;;;;5070941;28;20052;-63
2022/05/31 04:56:35;;;;;;;7.85;2.00;;;15.90;62.90;;;;;;5050609;28;20389;-63
2022/05/31 04:59:01;;;;;;;6.32;2.08;;;15.90;62.90;;;;;;5064775;28;20033;-63
2022/05/31 05:01:27;;;;;;;2.63;2.05;;;15.90;62.80;;;;;;5067931;28;20107;-63
2022/05/31 05:03:54;;;;;;;1.90;1.67;;;15.90;62.70;;;;;;5069075;28;20121;-63
2022/05/31 05:06:21;;;;;;;3.25;1.83;;;15.90;62.80;;;;;;5069021;28;20025;-62
2022/05/31 05:08:47;;;;;;;5.55;2.08;;;15.90;62.70;;;;;;5068356;28;20013;-62
2022/05/31 05:11:16;;;;;;;6.68;2.45;;;15.90;62.70;;;;;;5076427;28;20086;-62
2022/05/31 05:13:42;;;;;;;4.15;2.13;;;15.90;62.70;;;;;;5087103;28;20029;-63
2022/05/31 05:16:10;;;;;;;6.35;1.83;;;15.90;62.50;;;;;;5088827;28;20024;-63
2022/05/31 05:18:36;;;;;;;4.45;2.17;;;15.90;62.40;;;;;;5062061;28;20028;-62
2022/05/31 05:21:04;;;;;;;5.00;2.15;;;15.90;62.30;;;;;;5067487;28;20029;-62
2022/05/31 05:23:31;;;;;;;7.45;1.67;;;15.90;62.30;;;;;;5066801;28;20032;-63
2022/05/31 05:25:58;;;;;;;2.30;1.98;;;15.90;62.30;;;;;;5068700;28;20054;-63
2022/05/31 05:31:22;;;;;;;4.97;2.08;;;16.00;62.30;;;;;;5088212;28;20496;-62
2022/05/31 05:33:48;;;;;;;3.92;2.20;;;16.00;62.30;;;;;;5088934;28;20047;-62
2022/05/31 05:36:14;;;;;;;6.03;2.28;;;16.00;62.30;;;;;;5092168;28;20028;-62
2022/05/31 05:38:39;;;;;;;4.03;2.10;;;16.00;62.30;;;;;;5091428;28;20020;-62
2022/05/31 05:41:05;;;;;;;5.07;1.80;;;16.00;62.50;;;;;;5092055;28;20073;-62
2022/05/31 05:43:31;;;;;;;8.95;2.13;;;16.00;62.60;;;;;;5073090;28;20508;-63
2022/05/31 05:45:56;;;;;;;4.45;2.17;;;16.10;62.50;;;;;;5092036;28;20024;-62
2022/05/31 05:48:22;;;;;;;4.45;2.00;;;16.00;62.50;;;;;;5092075;28;20414;-62
2022/05/31 05:50:48;;;;;;;8.45;2.88;;;16.00;62.40;;;;;;5073766;28;20107;-62
2022/05/31 05:53:13;;;;;;;6.63;2.50;;;16.10;62.50;;;;;;5091723;28;20028;-63
2022/05/31 05:55:40;;;;;;;3.25;2.20;;;16.00;62.50;;;;;;5091475;28;20268;-62
2022/05/31 05:58:09;;;;;;;4.78;2.22;;;16.00;62.60;;;;;;5090725;28;20034;-62
2022/05/31 06:00:47;;;;;;;2.80;2.28;;;16.00;62.60;;;;;;5091186;28;20048;-62
2022/05/31 06:03:50;;;;;;;5.35;2.40;;;16.00;62.70;;;;;;5092152;28;20024;-62
2022/05/31 06:06:17;;;;;;;5.35;2.30;;;16.00;62.80;;;;;;5008967;28;20058;-62
2022/05/31 06:08:46;;;;;;;9.38;2.63;;;16.00;62.80;;;;;;4992218;28;20022;-62
2022/05/31 06:11:16;;;;;;;6.93;2.50;;;16.00;62.80;;;;;;5000426;28;20068;-62
2022/05/31 06:13:49;;;;;;;4.22;2.15;;;16.00;62.80;;;;;;5027800;28;20080;-62
2022/05/31 06:16:17;;;;;;;3.53;2.38;;;16.00;62.90;;;;;;5027361;28;20310;-62
2022/05/31 06:18:51;;;;;;;5.15;2.10;;;16.00;62.90;;;;;;5015896;28;20530;-63
2022/05/31 06:21:18;;;;;;;3.20;2.20;;;16.00;63.00;;;;;;5009544;28;20479;-62
2022/05/31 06:23:44;;;;;;;6.70;2.75;;;16.00;63.00;;;;;;5008292;28;20125;-63
2022/05/31 06:26:09;;;;;;;3.28;2.47;;;16.00;63.10;;;;;;5009308;28;20456;-62
2022/05/31 06:28:35;;;;;;;6.43;2.55;;;16.10;63.10;;;;;;5013908;28;20022;-62
2022/05/31 06:31:00;;;;;;;6.32;2.30;;;16.00;63.20;;;;;;5028423;28;20029;-62
2022/05/31 06:33:26;;;;;;;6.88;2.30;;;16.00;63.10;;;;;;5027798;28;20053;-63
2022/05/31 06:35:51;;;;;;;6.57;2.45;;;16.00;63.20;;;;;;5028534;28;20049;-62
2022/05/31 06:38:17;;;;;;;7.95;2.55;;;16.10;63.30;;;;;;5027600;28;20637;-62
2022/05/31 06:40:43;;;;;;;4.55;2.22;;;16.00;63.20;;;;;;5028231;28;20524;-62
2022/05/31 06:43:09;;;;;;;6.18;2.22;;;16.10;63.30;;;;;;5070599;28;20035;-62
2022/05/31 06:45:34;;;;;;;5.38;2.78;;;16.10;63.30;;;;;;5090374;28;20031;-63
2022/05/31 06:48:00;;;;;;;7.57;2.50;;;16.00;63.30;;;;;;5089754;28;20473;-63
2022/05/31 06:50:25;;;;;;;3.67;2.58;;;16.10;63.40;;;;;;5091236;28;20024;-65
2022/05/31 06:58:19;;;;;;;11.90;2.50;;;16.00;64.20;;;;;;5071776;28;20056;-63
2022/05/31 07:00:46;;;;;;;5.05;2.60;;;15.90;64.20;;;;;;5089587;28;20056;-63
2022/05/31 07:03:12;;;;;;;13.73;2.67;;;16.00;64.10;;;;;;5090877;28;20032;-63
2022/05/31 07:05:40;;;;;;;9.38;2.63;;;15.90;64.20;;;;;;5090039;28;20024;-63
2022/05/31 07:08:06;;;;;;;4.63;2.72;;;15.90;64.50;;;;;;5089235;28;20392;-63
2022/05/31 07:10:32;;;;;;;2.55;2.10;;;16.00;64.60;;;;;;5089554;28;20095;-63
2022/05/31 07:12:57;;;;;;;5.35;2.28;;;15.90;64.90;;;;;;5050494;28;20021;-63
2022/05/31 07:15:25;;;;;;;3.13;2.20;;;15.90;65.00;;;;;;5067059;28;20044;-63
2022/05/31 07:17:51;;;;;;;6.38;2.33;;;15.90;65.30;;;;;;5069099;28;20052;-64
2022/05/31 07:20:17;;;;;;;8.40;2.60;;;15.90;65.30;;;;;;5068559;28;20039;-62
2022/05/31 07:22:43;;;;;;;4.28;2.30;;;15.90;65.70;;;;;;5068269;28;20024;-64
2022/05/31 07:25:09;;;;;;;3.83;2.17;;;15.90;66.00;;;;;;5068736;28;20048;-63
2022/05/31 07:27:35;;;;;;;3.58;2.17;;;15.90;66.50;;;;;;5067882;28;20626;-64
2022/05/31 07:30:02;;;;;;;5.43;2.10;;;15.90;66.30;;;;;;5080681;28;20024;-64
2022/05/31 07:32:27;;;;;;;8.88;2.70;;;16.00;66.60;;;;;;5088590;28;20503;-65
2022/05/31 07:34:54;;;;;;;4.95;2.13;;;16.00;67.10;;;;;;5076894;28;20021;-64
2022/05/31 07:37:19;;;;;;;2.97;1.98;;;16.00;68.20;;;;;;5069109;28;20086;-64
2022/05/31 07:39:47;;;;;;;8.63;3.03;;;16.00;67.90;;;;;;5068774;28;20024;-67
2022/05/31 07:42:12;;;;;;;11.27;3.22;;;16.00;68.60;;;;;;5067581;28;20470;-69
